createdAt,value
2022-12-17T04:04:14.950Z,99500.00
2022-12-17T04:07:35.945Z,99495.16
2022-12-17T04:10:59.603Z,99505.09
2022-12-17T04:14:20.243Z,99502.59
2022-12-17T04:17:41.036Z,99505.59
2022-12-17T04:21:03.021Z,99507.66
2022-12-17T04:24:23.764Z,99508.59
2022-12-17T04:27:44.554Z,99513.03
2022-12-17T04:31:05.291Z,99517.06
2022-12-17T04:34:26.032Z,99513.56
2022-12-17T04:37:48.015Z,99524.13
2022-12-17T04:41:08.664Z,99525.81
2022-12-17T04:44:29.348Z,99535.63
2022-12-17T04:47:50.079Z,99534.28
2022-12-17T04:51:10.822Z,99532.88
2022-12-17T04:54:32.825Z,99533.66
2022-12-17T04:57:53.605Z,99536.66
2022-12-17T05:01:14.428Z,99533.91
2022-12-17T05:04:35.274Z,99534.41
2022-12-17T05:07:56.041Z,99542.91
2022-12-17T05:11:21.541Z,99549.72
2022-12-17T05:14:42.273Z,99545.38
2022-12-17T05:18:05.069Z,99556.09
2022-12-17T05:21:30.555Z,99556.72
2022-12-17T05:24:54.016Z,99562.84
2022-12-17T05:28:15.971Z,99563.63
2022-12-17T05:31:37.111Z,99578.66
2022-12-17T05:34:57.885Z,99579.66
2022-12-17T05:38:21.671Z,99580.09
2022-12-17T05:41:42.402Z,99582.56
2022-12-17T05:45:04.364Z,99583.59
2022-12-17T05:48:24.977Z,99595.19
2022-12-17T05:51:45.927Z,99597.56
2022-12-17T05:55:06.590Z,99597.81
2022-12-17T05:58:27.378Z,99590.00
2022-12-17T06:05:26.868Z,99602.50
2022-12-17T06:08:47.622Z,99606.28
2022-12-17T06:12:08.305Z,99611.47
2022-12-17T06:15:29.088Z,99614.34
2022-12-17T06:18:49.855Z,99617.22
2022-12-17T06:22:12.778Z,99627.63
2022-12-17T06:25:33.493Z,99630.66
2022-12-17T06:28:55.044Z,99631.69
2022-12-17T06:32:15.822Z,99631.31
2022-12-17T06:35:36.580Z,99644.47
2022-12-17T06:38:58.593Z,99647.06
2022-12-17T06:42:19.285Z,99649.44
2022-12-17T06:45:39.961Z,99654.28
2022-12-17T06:49:00.732Z,99656.75
2022-12-17T06:52:21.413Z,99664.06
2022-12-17T06:55:43.686Z,99658.31
2022-12-17T06:59:04.412Z,99653.75
2022-12-17T07:02:27.588Z,99666.66
2022-12-17T07:05:48.407Z,99674.63
2022-12-17T07:09:09.187Z,99676.88
2022-12-17T07:12:32.332Z,99683.13
2022-12-17T07:15:53.030Z,99686.28
2022-12-17T07:19:13.740Z,99692.53
2022-12-17T07:22:34.446Z,99696.28
2022-12-17T07:25:55.230Z,99703.34
2022-12-17T07:29:20.196Z,99705.72
2022-12-17T07:32:40.955Z,99712.75
2022-12-17T07:36:02.064Z,99714.72
2022-12-17T07:39:22.857Z,99705.31
2022-12-17T07:42:43.491Z,99705.44
2022-12-17T07:46:05.621Z,99717.38
2022-12-17T07:49:26.555Z,99707.28
2022-12-17T07:52:47.439Z,99719.28
2022-12-17T07:56:08.120Z,99710.72
2022-12-17T07:59:28.885Z,99713.78
2022-12-17T08:02:50.984Z,99721.94
2022-12-17T08:06:12.256Z,99725.47
2022-12-17T08:09:32.937Z,99725.09
2022-12-17T08:12:53.651Z,99735.13
2022-12-17T08:16:14.428Z,99735.47
2022-12-17T08:19:39.361Z,99739.91
2022-12-17T08:23:00.267Z,99741.88
2022-12-17T08:26:20.885Z,99743.09
2022-12-17T08:29:41.708Z,99747.84
2022-12-17T08:33:02.489Z,99746.31
2022-12-17T08:36:24.524Z,99757.94
2022-12-17T08:39:45.200Z,99756.41
2022-12-17T08:43:08.998Z,99758.28
2022-12-17T08:46:30.016Z,99751.91
2022-12-17T08:49:50.792Z,99751.25
2022-12-17T08:53:17.426Z,99756.84
2022-12-17T08:56:38.302Z,99758.28
2022-12-17T08:59:58.969Z,99760.22
2022-12-17T09:03:20.715Z,99765.78
2022-12-17T09:06:44.582Z,99765.69
2022-12-17T09:10:06.532Z,99768.28
2022-12-17T09:13:27.311Z,99767.94
2022-12-17T09:16:48.000Z,99766.41
2022-12-17T09:20:08.726Z,99757.38
2022-12-17T09:23:33.518Z,99750.78
2022-12-17T09:26:55.636Z,99764.03
2022-12-17T09:30:17.338Z,99762.22
2022-12-17T09:33:38.474Z,99777.50
2022-12-17T09:36:59.438Z,99786.50
2022-12-17T09:40:27.194Z,99789.31
2022-12-17T09:44:02.420Z,99784.84
2022-12-17T09:52:04.986Z,99789.03
2022-12-17T09:55:28.907Z,99773.56
2022-12-17T09:58:52.234Z,99776.06
2022-12-17T10:02:14.957Z,99776.75
2022-12-17T10:05:40.910Z,99780.88
2022-12-17T10:09:08.571Z,99779.06
2022-12-17T10:12:32.168Z,99776.97
2022-12-17T10:15:55.354Z,99771.72
2022-12-17T10:19:17.039Z,99785.63
2022-12-17T10:22:39.557Z,99785.19
2022-12-17T10:26:04.881Z,99789.03
2022-12-17T10:29:28.740Z,99786.28
2022-12-17T10:32:50.957Z,99783.06
2022-12-17T10:36:11.947Z,99783.06
2022-12-17T10:39:36.064Z,99785.81
2022-12-17T10:43:01.378Z,99782.56
2022-12-17T10:46:22.594Z,99790.69
2022-12-17T10:49:44.950Z,99787.94
2022-12-17T10:53:09.299Z,99786.94
2022-12-17T10:56:34.501Z,99794.66
2022-12-17T10:59:55.454Z,99791.97
2022-12-17T11:03:16.558Z,99786.09
2022-12-17T11:06:43.757Z,99789.69
2022-12-17T11:10:10.218Z,99799.69
2022-12-17T11:13:40.139Z,99801.06
2022-12-17T11:17:05.720Z,99797.22
2022-12-17T11:20:35.066Z,99803.91
2022-12-17T11:24:01.720Z,99801.69
2022-12-17T11:27:28.473Z,99801.28
2022-12-17T11:31:00.558Z,99804.03
2022-12-17T11:34:32.064Z,99804.97
2022-12-17T11:38:03.604Z,99802.69
2022-12-17T11:41:30.454Z,99813.19
2022-12-17T11:45:02.987Z,99809.50
2022-12-17T11:48:28.843Z,99804.88
2022-12-17T11:51:57.076Z,99810.50
2022-12-17T11:55:25.543Z,99808.88
2022-12-17T11:58:55.909Z,99803.28
2022-12-17T12:02:29.046Z,99804.47
2022-12-17T12:05:57.332Z,99801.03
2022-12-17T12:09:25.471Z,99800.28
2022-12-17T12:13:05.035Z,99802.88
2022-12-17T12:16:38.079Z,99796.03
2022-12-17T12:20:08.761Z,99803.47
2022-12-17T12:23:35.554Z,99810.84
2022-12-17T12:27:05.125Z,99799.50
2022-12-17T12:30:28.912Z,99799.94
2022-12-17T12:33:59.742Z,99801.81
2022-12-17T12:37:26.043Z,99803.38
2022-12-17T12:40:57.271Z,99808.84
2022-12-17T12:44:35.942Z,99813.63
2022-12-17T12:48:03.004Z,99813.66
2022-12-17T12:51:34.386Z,99813.63
2022-12-17T12:55:05.018Z,99810.03
2022-12-17T12:58:38.270Z,99799.78
2022-12-17T13:01:59.480Z,99800.00
2022-12-17T13:05:33.454Z,99791.78
2022-12-17T13:08:45.151Z,99788.78
2022-12-17T13:11:58.106Z,99788.13
2022-12-17T13:15:19.659Z,99789.44
2022-12-17T13:18:34.374Z,99785.78
2022-12-17T13:21:44.472Z,99784.22
2022-12-17T13:24:58.451Z,99794.00
2022-12-17T13:28:28.351Z,99789.91
2022-12-17T13:31:49.139Z,99788.53
2022-12-17T13:35:13.794Z,99789.03
2022-12-17T13:38:31.992Z,99794.06
2022-12-17T13:41:44.318Z,99784.94
2022-12-17T13:44:56.039Z,99782.22
2022-12-17T13:48:06.332Z,99785.63
2022-12-17T13:51:22.117Z,99789.06
2022-12-17T13:54:32.366Z,99789.97
2022-12-17T13:57:46.772Z,99795.88
2022-12-17T14:01:06.678Z,99798.59
2022-12-17T14:04:25.573Z,99805.44
2022-12-17T14:07:39.899Z,99798.13
2022-12-17T14:11:13.690Z,99809.03
2022-12-17T14:14:31.631Z,99816.28
2022-12-17T14:17:45.345Z,99826.25
2022-12-17T14:21:00.251Z,99827.81
2022-12-17T14:24:14.306Z,99835.75
2022-12-17T14:27:27.963Z,99832.94
2022-12-17T14:31:02.492Z,99834.09
2022-12-17T14:34:12.106Z,99835.19
2022-12-17T14:37:25.671Z,99836.53
2022-12-17T14:40:35.837Z,99837.78
2022-12-17T14:43:45.875Z,99842.31
2022-12-17T14:47:12.690Z,99838.66
2022-12-17T14:50:30.463Z,99846.84
2022-12-17T14:53:40.528Z,99843.19
2022-12-17T14:56:51.055Z,99839.91
2022-12-17T15:00:01.016Z,99841.69
2022-12-17T15:03:19.072Z,99852.28
2022-12-17T15:06:29.327Z,99853.81
2022-12-17T15:09:40.620Z,99850.63
2022-12-17T15:12:52.960Z,99856.25
2022-12-17T15:16:03.367Z,99860.97
2022-12-17T15:19:14.722Z,99867.28
2022-12-17T15:22:24.938Z,99873.19
2022-12-17T15:25:40.093Z,99870.53
2022-12-17T15:28:53.894Z,99872.28
2022-12-17T15:32:04.118Z,99875.69
2022-12-17T15:35:16.093Z,99877.00
2022-12-17T15:38:26.167Z,99877.31
2022-12-17T15:41:47.206Z,99884.94
2022-12-17T15:44:57.218Z,99886.53
2022-12-17T15:48:07.748Z,99889.03
2022-12-17T15:51:21.029Z,99885.25
2022-12-17T15:54:31.337Z,99885.31
2022-12-17T15:57:41.465Z,99882.81
2022-12-17T16:00:51.507Z,99887.16
2022-12-17T16:04:01.510Z,99894.56
2022-12-17T16:07:13.286Z,99902.16
2022-12-17T16:10:23.373Z,99901.53
2022-12-17T16:13:33.372Z,99910.94
2022-12-17T16:16:44.762Z,99911.53
2022-12-17T16:19:54.993Z,99912.69
2022-12-17T16:23:06.380Z,99918.59
2022-12-17T16:26:18.513Z,99921.84
2022-12-17T16:29:28.524Z,99923.50
2022-12-17T16:32:38.680Z,99917.78
2022-12-17T16:35:52.066Z,99920.34
2022-12-17T16:39:04.478Z,99919.03
2022-12-17T16:42:14.477Z,99922.19
2022-12-17T16:45:24.533Z,99926.69
2022-12-17T16:48:39.788Z,99918.22
2022-12-17T16:51:54.796Z,99937.91
2022-12-17T16:55:06.735Z,99933.78
2022-12-17T16:58:17.996Z,99922.38
2022-12-17T17:01:29.505Z,99934.00
2022-12-17T17:04:39.784Z,99943.94
2022-12-17T17:07:49.944Z,99936.78
2022-12-17T17:11:08.274Z,99946.84
2022-12-17T17:14:18.324Z,99949.06
2022-12-17T17:17:54.110Z,99946.75
2022-12-17T17:21:13.943Z,99948.38
2022-12-17T17:24:25.903Z,99949.47
2022-12-17T17:27:37.388Z,99952.38
2022-12-17T17:30:47.425Z,99951.34
2022-12-17T17:33:57.971Z,99959.06
2022-12-17T17:37:08.428Z,99965.81
2022-12-17T17:40:18.601Z,99963.47
2022-12-17T17:43:30.478Z,99970.84
2022-12-17T17:46:41.231Z,99968.78
2022-12-17T17:49:51.363Z,99977.16
2022-12-17T17:53:01.514Z,99980.16
2022-12-17T17:56:16.165Z,99976.88
2022-12-17T17:59:33.231Z,99973.22
2022-12-17T18:02:47.179Z,99975.59
2022-12-17T18:05:57.452Z,99991.06
2022-12-17T18:09:08.866Z,99991.97
2022-12-17T18:12:29.799Z,99990.25
2022-12-17T18:15:41.212Z,99985.19
2022-12-17T18:18:51.713Z,99993.81
2022-12-17T18:22:02.032Z,99987.41
2022-12-17T18:25:12.023Z,99979.44
2022-12-17T18:28:22.044Z,99976.16
2022-12-17T18:31:33.565Z,99977.47
2022-12-17T18:34:43.784Z,99981.94
2022-12-17T18:37:54.078Z,99984.56
2022-12-17T18:41:28.331Z,99980.91
2022-12-17T18:44:40.335Z,99987.44
2022-12-17T18:47:52.659Z,99998.25
2022-12-17T18:51:06.218Z,100008.47
2022-12-17T18:54:18.341Z,100014.34
2022-12-17T18:57:28.281Z,100026.25
2022-12-17T19:00:39.300Z,100026.63
2022-12-17T19:03:51.096Z,100030.00
2022-12-17T19:07:01.025Z,100031.72
2022-12-17T19:10:11.670Z,100020.63
2022-12-17T19:13:21.715Z,100015.91
2022-12-17T19:16:31.756Z,100024.31
2022-12-17T19:19:43.285Z,100026.63
2022-12-17T19:22:53.386Z,100025.56
2022-12-17T19:26:08.383Z,100031.16
2022-12-17T19:29:20.532Z,100029.00
2022-12-17T19:32:30.604Z,100029.69
2022-12-17T19:35:42.059Z,100035.03
2022-12-17T19:38:53.625Z,100024.31
2022-12-17T19:42:03.691Z,100020.91
2022-12-17T19:45:13.820Z,100020.78
2022-12-17T19:48:23.713Z,100027.63
2022-12-17T19:51:35.144Z,100028.81
2022-12-17T19:54:45.268Z,100029.78
2022-12-17T19:57:55.226Z,100016.41
2022-12-17T20:01:07.802Z,100020.06
2022-12-17T20:04:18.125Z,100037.97
2022-12-17T20:07:29.525Z,100036.16
2022-12-17T20:10:39.746Z,100043.72
2022-12-17T20:13:54.520Z,100051.28
2022-12-17T20:17:06.128Z,100048.28
2022-12-17T20:20:16.455Z,100062.75
2022-12-17T20:23:27.728Z,100070.31
2022-12-17T20:26:37.896Z,100061.56
2022-12-17T20:29:48.091Z,100047.75
2022-12-17T20:32:58.120Z,100045.56
2022-12-17T20:36:10.545Z,100046.38
2022-12-17T20:39:27.321Z,100043.97
2022-12-17T20:42:38.624Z,100055.63
2022-12-17T20:45:49.999Z,100060.69
2022-12-17T20:49:01.213Z,100066.19
2022-12-17T20:52:11.294Z,100059.44
2022-12-17T20:55:26.525Z,100065.38
2022-12-17T20:58:42.132Z,100070.53
2022-12-17T21:01:56.034Z,100060.38
2022-12-17T21:05:07.215Z,100056.22
2022-12-17T21:08:17.475Z,100046.56
2022-12-17T21:11:31.217Z,100045.25
2022-12-17T21:14:41.577Z,100060.81
2022-12-17T21:17:51.920Z,100066.06
2022-12-17T21:21:04.312Z,100071.81
2022-12-17T21:24:14.385Z,100070.84
2022-12-17T21:27:25.850Z,100076.41
2022-12-17T21:30:37.515Z,100068.84
2022-12-17T21:33:48.736Z,100073.44
2022-12-17T21:36:59.038Z,100067.28
2022-12-17T21:40:09.661Z,100065.22
2022-12-17T21:43:20.962Z,100067.19
2022-12-17T21:46:31.501Z,100077.88
2022-12-17T21:49:41.598Z,100080.25
2022-12-17T21:52:51.858Z,100080.19
2022-12-17T21:56:04.934Z,100080.59
2022-12-17T21:59:17.131Z,100082.59
2022-12-17T22:02:27.264Z,100088.38
2022-12-17T22:05:37.918Z,100082.38
2022-12-17T22:08:48.803Z,100082.75
2022-12-17T22:12:16.433Z,100088.66
2022-12-17T22:15:27.855Z,100081.00
2022-12-17T22:18:43.558Z,100077.72
2022-12-17T22:21:54.990Z,100071.34
2022-12-17T22:25:10.480Z,100079.31
2022-12-17T22:28:22.271Z,100086.81
2022-12-17T22:31:46.155Z,100089.78
2022-12-17T22:35:51.833Z,100089.78
2022-12-17T22:42:21.559Z,100092.09
2022-12-17T22:44:34.438Z,100076.66
2022-12-17T22:45:41.550Z,100076.81
2022-12-17T22:48:53.009Z,100078.81
